sensor_id;sensor_type;location;lat;lon;timestamp;temperature;humidity
76102;SHT30;64830;46.910;6.354;2024-02-23T00:00:26;4.82;80.32
76102;SHT30;64830;46.910;6.354;2024-02-23T00:02:51;4.73;79.57
76102;SHT30;64830;46.910;6.354;2024-02-23T00:05:19;4.68;80.30
76102;SHT30;64830;46.910;6.354;2024-02-23T00:07:45;4.68;80.14
76102;SHT30;64830;46.910;6.354;2024-02-23T00:10:10;4.64;79.93
76102;SHT30;64830;46.910;6.354;2024-02-23T00:12:36;4.62;80.28
76102;SHT30;64830;46.910;6.354;2024-02-23T00:15:01;4.58;79.88
76102;SHT30;64830;46.910;6.354;2024-02-23T00:17:27;4.54;80.39
76102;SHT30;64830;46.910;6.354;2024-02-23T00:19:52;4.50;80.56
76102;SHT30;64830;46.910;6.354;2024-02-23T00:22:18;4.45;80.83
76102;SHT30;64830;46.910;6.354;2024-02-23T00:24:43;4.48;81.10
76102;SHT30;64830;46.910;6.354;2024-02-23T00:27:09;4.50;81.26
76102;SHT30;64830;46.910;6.354;2024-02-23T00:29:35;4.50;80.44
76102;SHT30;64830;46.910;6.354;2024-02-23T00:32:01;4.51;81.17
76102;SHT30;64830;46.910;6.354;2024-02-23T00:34:27;4.51;79.34
76102;SHT30;64830;46.910;6.354;2024-02-23T00:36:52;4.47;79.73
76102;SHT30;64830;46.910;6.354;2024-02-23T00:39:18;4.38;78.00
76102;SHT30;64830;46.910;6.354;2024-02-23T00:41:43;4.29;78.66
76102;SHT30;64830;46.910;6.354;2024-02-23T00:44:09;4.20;77.70
76102;SHT30;64830;46.910;6.354;2024-02-23T00:46:34;4.11;78.60
76102;SHT30;64830;46.910;6.354;2024-02-23T00:49:00;4.09;78.49
76102;SHT30;64830;46.910;6.354;2024-02-23T00:51:25;4.03;79.04
76102;SHT30;64830;46.910;6.354;2024-02-23T00:53:51;4.03;78.35
76102;SHT30;64830;46.910;6.354;2024-02-23T00:56:16;3.93;78.34
76102;SHT30;64830;46.910;6.354;2024-02-23T00:58:41;3.92;79.13
76102;SHT30;64830;46.910;6.354;2024-02-23T01:01:07;3.88;79.18
76102;SHT30;64830;46.910;6.354;2024-02-23T01:03:33;3.85;79.78
76102;SHT30;64830;46.910;6.354;2024-02-23T01:05:58;3.85;80.02
76102;SHT30;64830;46.910;6.354;2024-02-23T01:08:24;3.86;80.36
76102;SHT30;64830;46.910;6.354;2024-02-23T01:10:49;3.92;80.56
76102;SHT30;64830;46.910;6.354;2024-02-23T01:13:15;3.98;80.90
76102;SHT30;64830;46.910;6.354;2024-02-23T01:15:41;4.02;81.01
76102;SHT30;64830;46.910;6.354;2024-02-23T01:18:07;4.00;80.88
76102;SHT30;64830;46.910;6.354;2024-02-23T01:20:33;4.02;81.17
76102;SHT30;64830;46.910;6.354;2024-02-23T01:22:58;4.07;81.06
76102;SHT30;64830;46.910;6.354;2024-02-23T01:25:24;4.07;80.53
76102;SHT30;64830;46.910;6.354;2024-02-23T01:27:49;4.06;80.14
76102;SHT30;64830;46.910;6.354;2024-02-23T01:30:15;4.07;80.26
76102;SHT30;64830;46.910;6.354;2024-02-23T01:32:40;4.09;80.21
76102;SHT30;64830;46.910;6.354;2024-02-23T01:35:06;4.05;79.55
76102;SHT30;64830;46.910;6.354;2024-02-23T01:37:33;3.99;78.93
76102;SHT30;64830;46.910;6.354;2024-02-23T01:39:59;3.91;78.38
76102;SHT30;64830;46.910;6.354;2024-02-23T01:42:25;3.82;79.20
76102;SHT30;64830;46.910;6.354;2024-02-23T01:44:51;3.78;79.40
76102;SHT30;64830;46.910;6.354;2024-02-23T01:47:17;3.75;79.44
76102;SHT30;64830;46.910;6.354;2024-02-23T01:49:44;3.71;79.11
76102;SHT30;64830;46.910;6.354;2024-02-23T01:52:11;3.71;79.44
76102;SHT30;64830;46.910;6.354;2024-02-23T01:54:37;3.65;79.71
76102;SHT30;64830;46.910;6.354;2024-02-23T01:57:02;3.65;79.94
76102;SHT30;64830;46.910;6.354;2024-02-23T01:59:28;3.68;79.65
76102;SHT30;64830;46.910;6.354;2024-02-23T02:01:55;3.67;79.95
76102;SHT30;64830;46.910;6.354;2024-02-23T02:04:21;3.64;79.67
76102;SHT30;64830;46.910;6.354;2024-02-23T02:06:47;3.63;79.88
76102;SHT30;64830;46.910;6.354;2024-02-23T02:09:13;3.64;79.19
76102;SHT30;64830;46.910;6.354;2024-02-23T02:11:48;3.54;79.06
76102;SHT30;64830;46.910;6.354;2024-02-23T02:14:14;3.50;78.69
76102;SHT30;64830;46.910;6.354;2024-02-23T02:16:40;3.41;78.25
76102;SHT30;64830;46.910;6.354;2024-02-23T02:19:06;3.37;78.50
76102;SHT30;64830;46.910;6.354;2024-02-23T02:21:32;3.33;78.72
76102;SHT30;64830;46.910;6.354;2024-02-23T02:23:58;3.26;78.46
76102;SHT30;64830;46.910;6.354;2024-02-23T02:26:23;3.23;78.74
76102;SHT30;64830;46.910;6.354;2024-02-23T02:28:49;3.19;78.38
76102;SHT30;64830;46.910;6.354;2024-02-23T02:31:14;3.20;78.69
76102;SHT30;64830;46.910;6.354;2024-02-23T02:33:40;3.17;78.52
76102;SHT30;64830;46.910;6.354;2024-02-23T02:36:06;3.13;78.65
76102;SHT30;64830;46.910;6.354;2024-02-23T02:38:31;3.10;78.80
76102;SHT30;64830;46.910;6.354;2024-02-23T02:40:59;3.09;78.99
76102;SHT30;64830;46.910;6.354;2024-02-23T02:43:26;3.09;78.68
76102;SHT30;64830;46.910;6.354;2024-02-23T02:45:51;3.06;79.36
76102;SHT30;64830;46.910;6.354;2024-02-23T02:48:17;3.03;78.92
76102;SHT30;64830;46.910;6.354;2024-02-23T02:50:42;2.98;79.22
76102;SHT30;64830;46.910;6.354;2024-02-23T02:53:08;2.98;79.23
76102;SHT30;64830;46.910;6.354;2024-02-23T02:55:33;2.98;79.17
76102;SHT30;64830;46.910;6.354;2024-02-23T02:57:59;2.96;79.24
76102;SHT30;64830;46.910;6.354;2024-02-23T03:00:24;2.96;79.19
76102;SHT30;64830;46.910;6.354;2024-02-23T03:02:50;2.91;78.90
76102;SHT30;64830;46.910;6.354;2024-02-23T03:05:15;2.93;79.04
76102;SHT30;64830;46.910;6.354;2024-02-23T03:07:40;2.92;78.97
76102;SHT30;64830;46.910;6.354;2024-02-23T03:10:06;2.88;79.04
76102;SHT30;64830;46.910;6.354;2024-02-23T03:12:32;2.88;78.79
76102;SHT30;64830;46.910;6.354;2024-02-23T03:14:58;2.84;79.28
76102;SHT30;64830;46.910;6.354;2024-02-23T03:17:23;2.84;79.38
76102;SHT30;64830;46.910;6.354;2024-02-23T03:19:49;2.82;79.20
76102;SHT30;64830;46.910;6.354;2024-02-23T03:22:15;2.85;79.36
76102;SHT30;64830;46.910;6.354;2024-02-23T03:24:41;2.85;79.00
76102;SHT30;64830;46.910;6.354;2024-02-23T03:27:06;2.85;79.28
76102;SHT30;64830;46.910;6.354;2024-02-23T03:29:32;2.84;79.17
76102;SHT30;64830;46.910;6.354;2024-02-23T03:31:58;2.81;79.16
76102;SHT30;64830;46.910;6.354;2024-02-23T03:34:24;2.82;79.28
76102;SHT30;64830;46.910;6.354;2024-02-23T03:36:50;2.84;79.27
76102;SHT30;64830;46.910;6.354;2024-02-23T03:39:15;2.78;79.32
76102;SHT30;64830;46.910;6.354;2024-02-23T03:41:41;2.78;79.46
76102;SHT30;64830;46.910;6.354;2024-02-23T03:44:06;2.78;79.46
76102;SHT30;64830;46.910;6.354;2024-02-23T03:46:31;2.77;79.33
76102;SHT30;64830;46.910;6.354;2024-02-23T03:48:57;2.78;79.40
76102;SHT30;64830;46.910;6.354;2024-02-23T03:51:23;2.78;79.43
76102;SHT30;64830;46.910;6.354;2024-02-23T03:53:49;2.78;79.27
76102;SHT30;64830;46.910;6.354;2024-02-23T03:56:14;2.78;79.38
76102;SHT30;64830;46.910;6.354;2024-02-23T03:58:40;2.80;79.18
76102;SHT30;64830;46.910;6.354;2024-02-23T04:01:05;2.74;79.35
76102;SHT30;64830;46.910;6.354;2024-02-23T04:03:30;2.78;79.24
76102;SHT30;64830;46.910;6.354;2024-02-23T04:05:56;2.77;79.21
76102;SHT30;64830;46.910;6.354;2024-02-23T04:08:21;2.74;79.41
76102;SHT30;64830;46.910;6.354;2024-02-23T04:10:47;2.75;79.24
76102;SHT30;64830;46.910;6.354;2024-02-23T04:13:12;2.72;79.06
76102;SHT30;64830;46.910;6.354;2024-02-23T04:15:43;2.72;78.93
76102;SHT30;64830;46.910;6.354;2024-02-23T04:18:08;2.72;78.88
76102;SHT30;64830;46.910;6.354;2024-02-23T04:20:34;2.71;78.64
76102;SHT30;64830;46.910;6.354;2024-02-23T04:22:59;2.71;78.78
76102;SHT30;64830;46.910;6.354;2024-02-23T04:25:25;2.70;78.57
76102;SHT30;64830;46.910;6.354;2024-02-23T04:27:51;2.71;78.70
76102;SHT30;64830;46.910;6.354;2024-02-23T04:30:16;2.70;78.69
76102;SHT30;64830;46.910;6.354;2024-02-23T04:32:42;2.70;78.52
76102;SHT30;64830;46.910;6.354;2024-02-23T04:35:08;2.66;78.56
76102;SHT30;64830;46.910;6.354;2024-02-23T04:37:34;2.68;78.14
76102;SHT30;64830;46.910;6.354;2024-02-23T04:39:59;2.68;78.38
76102;SHT30;64830;46.910;6.354;2024-02-23T04:42:25;2.64;77.99
76102;SHT30;64830;46.910;6.354;2024-02-23T04:44:50;2.65;77.94
76102;SHT30;64830;46.910;6.354;2024-02-23T04:47:18;2.64;77.96
76102;SHT30;64830;46.910;6.354;2024-02-23T04:49:43;2.60;77.86
76102;SHT30;64830;46.910;6.354;2024-02-23T04:52:08;2.60;77.54
76102;SHT30;64830;46.910;6.354;2024-02-23T04:54:34;2.58;77.76
76102;SHT30;64830;46.910;6.354;2024-02-23T04:57:00;2.60;77.36
76102;SHT30;64830;46.910;6.354;2024-02-23T04:59:25;2.55;77.29
76102;SHT30;64830;46.910;6.354;2024-02-23T05:01:51;2.60;77.37
76102;SHT30;64830;46.910;6.354;2024-02-23T05:04:16;2.57;77.43
76102;SHT30;64830;46.910;6.354;2024-02-23T05:06:42;2.57;77.41
76102;SHT30;64830;46.910;6.354;2024-02-23T05:09:09;2.55;77.65
76102;SHT30;64830;46.910;6.354;2024-02-23T05:11:34;2.54;76.89
76102;SHT30;64830;46.910;6.354;2024-02-23T05:14:00;2.51;77.00
76102;SHT30;64830;46.910;6.354;2024-02-23T05:16:26;2.48;76.61
76102;SHT30;64830;46.910;6.354;2024-02-23T05:18:51;2.48;76.98
76102;SHT30;64830;46.910;6.354;2024-02-23T05:21:17;2.46;77.16
76102;SHT30;64830;46.910;6.354;2024-02-23T05:23:43;2.48;76.99
76102;SHT30;64830;46.910;6.354;2024-02-23T05:26:08;2.47;76.65
76102;SHT30;64830;46.910;6.354;2024-02-23T05:28:34;2.50;76.87
76102;SHT30;64830;46.910;6.354;2024-02-23T05:31:02;2.46;77.02
76102;SHT30;64830;46.910;6.354;2024-02-23T05:33:28;2.43;77.09
76102;SHT30;64830;46.910;6.354;2024-02-23T05:35:54;2.40;77.40
76102;SHT30;64830;46.910;6.354;2024-02-23T05:38:19;2.41;77.73
76102;SHT30;64830;46.910;6.354;2024-02-23T05:40:45;2.38;78.10
76102;SHT30;64830;46.910;6.354;2024-02-23T05:43:10;2.36;78.15
76102;SHT30;64830;46.910;6.354;2024-02-23T05:45:36;2.32;78.30
76102;SHT30;64830;46.910;6.354;2024-02-23T05:48:02;2.27;78.48
76102;SHT30;64830;46.910;6.354;2024-02-23T05:50:27;2.26;78.89
76102;SHT30;64830;46.910;6.354;2024-02-23T05:52:52;2.23;78.85
76102;SHT30;64830;46.910;6.354;2024-02-23T05:55:18;2.22;78.95
76102;SHT30;64830;46.910;6.354;2024-02-23T05:57:44;2.13;79.16
76102;SHT30;64830;46.910;6.354;2024-02-23T06:00:10;2.10;79.22
76102;SHT30;64830;46.910;6.354;2024-02-23T06:02:37;2.06;79.38
76102;SHT30;64830;46.910;6.354;2024-02-23T06:05:02;2.05;79.41
76102;SHT30;64830;46.910;6.354;2024-02-23T06:07:29;2.02;79.55
76102;SHT30;64830;46.910;6.354;2024-02-23T06:09:55;2.01;79.53
76102;SHT30;64830;46.910;6.354;2024-02-23T06:12:21;1.97;79.55
76102;SHT30;64830;46.910;6.354;2024-02-23T06:14:47;1.98;79.75
76102;SHT30;64830;46.910;6.354;2024-02-23T06:17:12;1.95;79.98
76102;SHT30;64830;46.910;6.354;2024-02-23T06:19:38;1.97;80.04
76102;SHT30;64830;46.910;6.354;2024-02-23T06:22:03;1.95;79.98
76102;SHT30;64830;46.910;6.354;2024-02-23T06:24:29;1.94;79.93
76102;SHT30;64830;46.910;6.354;2024-02-23T06:26:54;1.94;80.22
76102;SHT30;64830;46.910;6.354;2024-02-23T06:29:20;1.95;79.97
76102;SHT30;64830;46.910;6.354;2024-02-23T06:31:45;1.97;80.01
76102;SHT30;64830;46.910;6.354;2024-02-23T06:34:14;1.98;80.14
76102;SHT30;64830;46.910;6.354;2024-02-23T06:36:40;1.99;80.15
76102;SHT30;64830;46.910;6.354;2024-02-23T06:39:05;1.98;80.13
76102;SHT30;64830;46.910;6.354;2024-02-23T06:41:31;1.99;80.11
76102;SHT30;64830;46.910;6.354;2024-02-23T06:43:56;2.01;80.19
76102;SHT30;64830;46.910;6.354;2024-02-23T06:46:22;2.01;80.10
76102;SHT30;64830;46.910;6.354;2024-02-23T06:48:47;2.02;80.27
76102;SHT30;64830;46.910;6.354;2024-02-23T06:51:13;1.99;80.27
76102;SHT30;64830;46.910;6.354;2024-02-23T06:53:39;2.02;80.40
76102;SHT30;64830;46.910;6.354;2024-02-23T06:56:05;2.01;80.35
76102;SHT30;64830;46.910;6.354;2024-02-23T06:58:30;1.98;80.48
76102;SHT30;64830;46.910;6.354;2024-02-23T07:00:56;2.01;80.48
76102;SHT30;64830;46.910;6.354;2024-02-23T07:03:21;1.97;80.46
76102;SHT30;64830;46.910;6.354;2024-02-23T07:05:47;1.99;80.38
76102;SHT30;64830;46.910;6.354;2024-02-23T07:08:15;2.02;80.56
76102;SHT30;64830;46.910;6.354;2024-02-23T07:10:41;2.09;80.55
76102;SHT30;64830;46.910;6.354;2024-02-23T07:13:07;2.18;80.39
76102;SHT30;64830;46.910;6.354;2024-02-23T07:15:34;2.23;80.17
76102;SHT30;64830;46.910;6.354;2024-02-23T07:18:01;2.27;79.97
76102;SHT30;64830;46.910;6.354;2024-02-23T07:20:26;2.36;79.68
76102;SHT30;64830;46.910;6.354;2024-02-23T07:22:52;2.44;79.46
76102;SHT30;64830;46.910;6.354;2024-02-23T07:25:18;2.51;79.23
76102;SHT30;64830;46.910;6.354;2024-02-23T07:27:46;2.57;79.01
76102;SHT30;64830;46.910;6.354;2024-02-23T07:30:12;2.65;79.18
76102;SHT30;64830;46.910;6.354;2024-02-23T07:32:37;2.77;78.40
76102;SHT30;64830;46.910;6.354;2024-02-23T07:35:03;2.87;78.56
76102;SHT30;64830;46.910;6.354;2024-02-23T07:37:29;2.99;78.62
76102;SHT30;64830;46.910;6.354;2024-02-23T07:39:55;3.08;78.48
76102;SHT30;64830;46.910;6.354;2024-02-23T07:42:20;3.23;78.05
76102;SHT30;64830;46.910;6.354;2024-02-23T07:44:46;3.30;77.21
76102;SHT30;64830;46.910;6.354;2024-02-23T07:47:12;3.38;77.40
76102;SHT30;64830;46.910;6.354;2024-02-23T07:49:37;3.51;77.47
76102;SHT30;64830;46.910;6.354;2024-02-23T07:52:03;3.64;76.74
76102;SHT30;64830;46.910;6.354;2024-02-23T07:54:29;3.74;76.69
76102;SHT30;64830;46.910;6.354;2024-02-23T07:56:54;3.83;76.13
76102;SHT30;64830;46.910;6.354;2024-02-23T07:59:20;3.92;75.76
76102;SHT30;64830;46.910;6.354;2024-02-23T08:01:45;4.02;75.57
76102;SHT30;64830;46.910;6.354;2024-02-23T08:04:12;4.09;75.54
76102;SHT30;64830;46.910;6.354;2024-02-23T08:06:39;4.23;75.30
76102;SHT30;64830;46.910;6.354;2024-02-23T08:09:04;4.36;75.54
76102;SHT30;64830;46.910;6.354;2024-02-23T08:11:30;4.45;75.35
76102;SHT30;64830;46.910;6.354;2024-02-23T08:13:55;4.57;74.94
76102;SHT30;64830;46.910;6.354;2024-02-23T08:16:24;4.68;74.85
76102;SHT30;64830;46.910;6.354;2024-02-23T08:18:49;4.81;74.38
76102;SHT30;64830;46.910;6.354;2024-02-23T08:21:14;4.95;73.89
76102;SHT30;64830;46.910;6.354;2024-02-23T08:23:40;5.05;73.74
76102;SHT30;64830;46.910;6.354;2024-02-23T08:26:06;5.09;70.95
76102;SHT30;64830;46.910;6.354;2024-02-23T08:28:31;5.09;71.05
76102;SHT30;64830;46.910;6.354;2024-02-23T08:30:57;5.19;70.78
76102;SHT30;64830;46.910;6.354;2024-02-23T08:33:22;5.26;69.09
76102;SHT30;64830;46.910;6.354;2024-02-23T08:35:48;5.27;70.46
76102;SHT30;64830;46.910;6.354;2024-02-23T08:38:14;5.31;71.19
76102;SHT30;64830;46.910;6.354;2024-02-23T08:40:39;5.38;71.10
76102;SHT30;64830;46.910;6.354;2024-02-23T08:43:05;5.54;71.16
76102;SHT30;64830;46.910;6.354;2024-02-23T08:45:33;5.63;71.21
76102;SHT30;64830;46.910;6.354;2024-02-23T08:47:58;5.76;71.23
76102;SHT30;64830;46.910;6.354;2024-02-23T08:50:24;5.90;70.18
76102;SHT30;64830;46.910;6.354;2024-02-23T08:52:50;5.99;70.37
76102;SHT30;64830;46.910;6.354;2024-02-23T08:55:15;6.06;70.54
76102;SHT30;64830;46.910;6.354;2024-02-23T08:57:41;6.18;69.47
76102;SHT30;64830;46.910;6.354;2024-02-23T09:00:10;6.23;69.14
76102;SHT30;64830;46.910;6.354;2024-02-23T09:02:35;6.33;68.20
76102;SHT30;64830;46.910;6.354;2024-02-23T09:05:03;6.37;68.24
76102;SHT30;64830;46.910;6.354;2024-02-23T09:07:30;6.42;68.69
76102;SHT30;64830;46.910;6.354;2024-02-23T09:09:55;6.56;68.26
76102;SHT30;64830;46.910;6.354;2024-02-23T09:12:22;6.67;67.49
76102;SHT30;64830;46.910;6.354;2024-02-23T09:14:47;6.72;67.81
76102;SHT30;64830;46.910;6.354;2024-02-23T09:17:13;6.78;67.53
76102;SHT30;64830;46.910;6.354;2024-02-23T09:19:38;6.82;67.67
76102;SHT30;64830;46.910;6.354;2024-02-23T09:22:04;6.83;66.37
76102;SHT30;64830;46.910;6.354;2024-02-23T09:24:29;6.90;67.07
76102;SHT30;64830;46.910;6.354;2024-02-23T09:26:55;6.97;66.25
76102;SHT30;64830;46.910;6.354;2024-02-23T09:29:20;6.99;66.97
76102;SHT30;64830;46.910;6.354;2024-02-23T09:31:46;6.96;64.18
76102;SHT30;64830;46.910;6.354;2024-02-23T09:34:15;6.86;63.16
76102;SHT30;64830;46.910;6.354;2024-02-23T09:36:40;6.75;62.24
76102;SHT30;64830;46.910;6.354;2024-02-23T09:39:06;6.71;63.04
76102;SHT30;64830;46.910;6.354;2024-02-23T09:41:36;6.71;64.27
76102;SHT30;64830;46.910;6.354;2024-02-23T09:44:02;6.68;64.35
76102;SHT30;64830;46.910;6.354;2024-02-23T09:46:31;6.73;65.01
76102;SHT30;64830;46.910;6.354;2024-02-23T09:48:58;6.73;63.41
76102;SHT30;64830;46.910;6.354;2024-02-23T09:51:25;6.58;61.55
76102;SHT30;64830;46.910;6.354;2024-02-23T09:53:53;6.35;61.28
76102;SHT30;64830;46.910;6.354;2024-02-23T09:56:21;6.17;61.77
76102;SHT30;64830;46.910;6.354;2024-02-23T09:58:50;6.09;63.02
76102;SHT30;64830;46.910;6.354;2024-02-23T10:01:25;5.97;63.37
76102;SHT30;64830;46.910;6.354;2024-02-23T10:03:56;5.86;63.41
76102;SHT30;64830;46.910;6.354;2024-02-23T10:06:22;5.76;62.85
76102;SHT30;64830;46.910;6.354;2024-02-23T10:08:50;5.66;63.88
76102;SHT30;64830;46.910;6.354;2024-02-23T10:11:24;5.62;63.45
76102;SHT30;64830;46.910;6.354;2024-02-23T10:13:50;5.52;63.64
76102;SHT30;64830;46.910;6.354;2024-02-23T10:16:19;5.45;64.15
76102;SHT30;64830;46.910;6.354;2024-02-23T10:18:48;5.47;65.01
76102;SHT30;64830;46.910;6.354;2024-02-23T10:21:16;5.54;65.08
76102;SHT30;64830;46.910;6.354;2024-02-23T10:23:45;5.55;63.82
76102;SHT30;64830;46.910;6.354;2024-02-23T10:26:11;5.54;63.40
76102;SHT30;64830;46.910;6.354;2024-02-23T10:28:40;5.68;64.62
76102;SHT30;64830;46.910;6.354;2024-02-23T10:31:06;5.80;65.01
76102;SHT30;64830;46.910;6.354;2024-02-23T10:33:31;5.97;63.94
76102;SHT30;64830;46.910;6.354;2024-02-23T10:35:57;6.16;64.60
76102;SHT30;64830;46.910;6.354;2024-02-23T10:38:32;6.33;63.00
76102;SHT30;64830;46.910;6.354;2024-02-23T10:40:58;6.28;60.83
76102;SHT30;64830;46.910;6.354;2024-02-23T10:43:56;6.30;63.54
76102;SHT30;64830;46.910;6.354;2024-02-23T10:46:28;6.33;62.25
76102;SHT30;64830;46.910;6.354;2024-02-23T10:48:54;6.31;60.53
76102;SHT30;64830;46.910;6.354;2024-02-23T10:51:28;6.24;60.75
76102;SHT30;64830;46.910;6.354;2024-02-23T10:53:54;6.18;61.51
76102;SHT30;64830;46.910;6.354;2024-02-23T10:56:20;6.18;62.15
76102;SHT30;64830;46.910;6.354;2024-02-23T10:58:50;6.13;62.24
76102;SHT30;64830;46.910;6.354;2024-02-23T11:01:19;6.07;62.59
76102;SHT30;64830;46.910;6.354;2024-02-23T11:03:48;6.03;63.27
76102;SHT30;64830;46.910;6.354;2024-02-23T11:06:16;6.03;62.82
76102;SHT30;64830;46.910;6.354;2024-02-23T11:08:46;6.09;63.25
76102;SHT30;64830;46.910;6.354;2024-02-23T11:11:15;6.09;63.00
76102;SHT30;64830;46.910;6.354;2024-02-23T11:13:43;6.13;61.70
76102;SHT30;64830;46.910;6.354;2024-02-23T11:16:09;6.13;63.00
76102;SHT30;64830;46.910;6.354;2024-02-23T11:18:36;6.16;63.80
76102;SHT30;64830;46.910;6.354;2024-02-23T11:21:05;6.14;63.70
76102;SHT30;64830;46.910;6.354;2024-02-23T11:23:44;6.21;64.05
76102;SHT30;64830;46.910;6.354;2024-02-23T11:26:11;6.25;62.92
76102;SHT30;64830;46.910;6.354;2024-02-23T11:28:49;6.30;61.71
76102;SHT30;64830;46.910;6.354;2024-02-23T11:31:20;6.24;60.60
76102;SHT30;64830;46.910;6.354;2024-02-23T11:33:49;6.27;62.28
76102;SHT30;64830;46.910;6.354;2024-02-23T11:36:28;6.34;61.38
76102;SHT30;64830;46.910;6.354;2024-02-23T11:38:56;6.37;62.82
76102;SHT30;64830;46.910;6.354;2024-02-23T11:41:25;6.41;60.31
76102;SHT30;64830;46.910;6.354;2024-02-23T11:43:55;6.44;62.09
76102;SHT30;64830;46.910;6.354;2024-02-23T11:46:22;6.53;63.07
76102;SHT30;64830;46.910;6.354;2024-02-23T11:48:48;6.59;63.30
76102;SHT30;64830;46.910;6.354;2024-02-23T11:51:21;6.71;63.24
76102;SHT30;64830;46.910;6.354;2024-02-23T11:53:48;6.76;60.92
76102;SHT30;64830;46.910;6.354;2024-02-23T11:56:13;6.73;62.42
76102;SHT30;64830;46.910;6.354;2024-02-23T11:58:42;6.71;62.31
76102;SHT30;64830;46.910;6.354;2024-02-23T12:01:08;6.75;62.35
76102;SHT30;64830;46.910;6.354;2024-02-23T12:03:36;6.76;62.10
76102;SHT30;64830;46.910;6.354;2024-02-23T12:06:04;6.85;62.35
76102;SHT30;64830;46.910;6.354;2024-02-23T12:08:33;6.92;62.30
76102;SHT30;64830;46.910;6.354;2024-02-23T12:11:05;6.93;62.28
76102;SHT30;64830;46.910;6.354;2024-02-23T12:13:36;7.01;61.86
76102;SHT30;64830;46.910;6.354;2024-02-23T12:16:02;7.04;62.13
76102;SHT30;64830;46.910;6.354;2024-02-23T12:18:28;7.06;62.24
76102;SHT30;64830;46.910;6.354;2024-02-23T12:21:09;7.00;60.90
76102;SHT30;64830;46.910;6.354;2024-02-23T12:23:49;6.90;62.38
76102;SHT30;64830;46.910;6.354;2024-02-23T12:26:18;6.85;61.99
76102;SHT30;64830;46.910;6.354;2024-02-23T12:28:44;6.80;60.15
76102;SHT30;64830;46.910;6.354;2024-02-23T12:31:13;6.73;61.64
76102;SHT30;64830;46.910;6.354;2024-02-23T12:33:39;6.62;61.38
76102;SHT30;64830;46.910;6.354;2024-02-23T12:36:05;6.52;62.06
76102;SHT30;64830;46.910;6.354;2024-02-23T12:38:31;6.41;63.40
76102;SHT30;64830;46.910;6.354;2024-02-23T12:40:57;6.25;64.24
76102;SHT30;64830;46.910;6.354;2024-02-23T12:43:23;6.18;64.65
76102;SHT30;64830;46.910;6.354;2024-02-23T12:45:58;6.13;65.53
76102;SHT30;64830;46.910;6.354;2024-02-23T12:48:23;6.14;66.13
76102;SHT30;64830;46.910;6.354;2024-02-23T12:50:50;6.17;65.96
76102;SHT30;64830;46.910;6.354;2024-02-23T12:53:34;6.20;65.98
76102;SHT30;64830;46.910;6.354;2024-02-23T12:56:13;6.24;65.82
76102;SHT30;64830;46.910;6.354;2024-02-23T12:58:41;6.27;65.99
76102;SHT30;64830;46.910;6.354;2024-02-23T13:01:10;6.31;67.16
76102;SHT30;64830;46.910;6.354;2024-02-23T13:03:38;6.33;65.42
76102;SHT30;64830;46.910;6.354;2024-02-23T13:06:08;6.33;65.37
76102;SHT30;64830;46.910;6.354;2024-02-23T13:08:34;6.34;65.24
76102;SHT30;64830;46.910;6.354;2024-02-23T13:11:00;6.31;64.59
76102;SHT30;64830;46.910;6.354;2024-02-23T13:13:26;6.28;64.47
76102;SHT30;64830;46.910;6.354;2024-02-23T13:15:54;6.21;65.16
76102;SHT30;64830;46.910;6.354;2024-02-23T13:18:20;6.14;65.43
76102;SHT30;64830;46.910;6.354;2024-02-23T13:20:46;6.13;66.32
76102;SHT30;64830;46.910;6.354;2024-02-23T13:23:12;6.03;65.79
76102;SHT30;64830;46.910;6.354;2024-02-23T13:25:46;5.93;66.50
76102;SHT30;64830;46.910;6.354;2024-02-23T13:28:12;5.90;66.75
76102;SHT30;64830;46.910;6.354;2024-02-23T13:30:38;5.92;67.21
76102;SHT30;64830;46.910;6.354;2024-02-23T13:33:04;5.90;66.39
76102;SHT30;64830;46.910;6.354;2024-02-23T13:35:31;5.89;67.02
76102;SHT30;64830;46.910;6.354;2024-02-23T13:37:56;5.90;66.05
76102;SHT30;64830;46.910;6.354;2024-02-23T13:40:31;5.89;66.31
76102;SHT30;64830;46.910;6.354;2024-02-23T13:42:59;5.93;66.85
76102;SHT30;64830;46.910;6.354;2024-02-23T13:45:25;5.95;66.25
76102;SHT30;64830;46.910;6.354;2024-02-23T13:47:57;5.93;65.65
76102;SHT30;64830;46.910;6.354;2024-02-23T13:50:24;5.90;66.04
76102;SHT30;64830;46.910;6.354;2024-02-23T13:52:49;5.92;66.82
76102;SHT30;64830;46.910;6.354;2024-02-23T13:55:15;5.92;67.05
76102;SHT30;64830;46.910;6.354;2024-02-23T13:57:41;5.95;66.96
76102;SHT30;64830;46.910;6.354;2024-02-23T14:00:06;6.02;67.68
76102;SHT30;64830;46.910;6.354;2024-02-23T14:02:38;6.10;67.78
76102;SHT30;64830;46.910;6.354;2024-02-23T14:05:06;6.11;67.50
76102;SHT30;64830;46.910;6.354;2024-02-23T14:07:38;6.11;67.61
76102;SHT30;64830;46.910;6.354;2024-02-23T14:10:11;6.05;68.75
76102;SHT30;64830;46.910;6.354;2024-02-23T14:12:40;6.00;69.63
76102;SHT30;64830;46.910;6.354;2024-02-23T14:15:06;5.89;70.32
76102;SHT30;64830;46.910;6.354;2024-02-23T14:17:32;5.86;70.59
76102;SHT30;64830;46.910;6.354;2024-02-23T14:19:57;5.88;70.70
76102;SHT30;64830;46.910;6.354;2024-02-23T14:22:23;5.89;70.80
76102;SHT30;64830;46.910;6.354;2024-02-23T14:24:48;5.88;70.16
76102;SHT30;64830;46.910;6.354;2024-02-23T14:27:14;5.80;70.35
76102;SHT30;64830;46.910;6.354;2024-02-23T14:29:39;5.80;70.71
76102;SHT30;64830;46.910;6.354;2024-02-23T14:32:05;5.85;70.60
76102;SHT30;64830;46.910;6.354;2024-02-23T14:34:30;5.86;70.73
76102;SHT30;64830;46.910;6.354;2024-02-23T14:36:58;5.89;70.43
76102;SHT30;64830;46.910;6.354;2024-02-23T14:39:24;5.88;70.09
76102;SHT30;64830;46.910;6.354;2024-02-23T14:41:49;5.82;70.05
76102;SHT30;64830;46.910;6.354;2024-02-23T14:44:15;5.86;70.19
76102;SHT30;64830;46.910;6.354;2024-02-23T14:46:40;5.89;70.51
76102;SHT30;64830;46.910;6.354;2024-02-23T14:49:06;5.92;69.33
76102;SHT30;64830;46.910;6.354;2024-02-23T14:51:32;5.97;69.67
76102;SHT30;64830;46.910;6.354;2024-02-23T14:53:57;6.03;68.91
76102;SHT30;64830;46.910;6.354;2024-02-23T14:56:23;6.02;69.16
76102;SHT30;64830;46.910;6.354;2024-02-23T14:58:48;6.02;69.34
76102;SHT30;64830;46.910;6.354;2024-02-23T15:01:14;6.05;69.80
76102;SHT30;64830;46.910;6.354;2024-02-23T15:03:39;6.09;69.39
76102;SHT30;64830;46.910;6.354;2024-02-23T15:06:05;6.09;69.71
76102;SHT30;64830;46.910;6.354;2024-02-23T15:08:30;6.09;69.95
76102;SHT30;64830;46.910;6.354;2024-02-23T15:10:56;6.11;70.51
76102;SHT30;64830;46.910;6.354;2024-02-23T15:13:21;6.17;70.58
76102;SHT30;64830;46.910;6.354;2024-02-23T15:15:47;6.17;70.82
76102;SHT30;64830;46.910;6.354;2024-02-23T15:18:12;6.20;70.54
76102;SHT30;64830;46.910;6.354;2024-02-23T15:20:37;6.24;71.09
76102;SHT30;64830;46.910;6.354;2024-02-23T15:23:03;6.24;70.81
76102;SHT30;64830;46.910;6.354;2024-02-23T15:25:29;6.27;71.22
76102;SHT30;64830;46.910;6.354;2024-02-23T15:27:54;6.27;70.77
76102;SHT30;64830;46.910;6.354;2024-02-23T15:30:23;6.28;70.83
76102;SHT30;64830;46.910;6.354;2024-02-23T15:32:49;6.28;70.84
76102;SHT30;64830;46.910;6.354;2024-02-23T15:35:14;6.27;70.69
76102;SHT30;64830;46.910;6.354;2024-02-23T15:37:40;6.28;70.80
76102;SHT30;64830;46.910;6.354;2024-02-23T15:40:05;6.27;70.81